Time;durP1;ratioP1;P1;durP2;ratioP2;P2;SDS_P1;SDS_P2;PMS_P1;PMS_P2;Temp;Humidity;BMP_temperature;BMP_pressure;BME280_temperature;BME280_humidity;BME280_pressure;Samples;Min_cycle;Max_cycle;Signal;HPM_P1;HPM_P2
2022/02/10 00:04:18;;;;;;;47.27;28.07;;;;;;;;;;5033544;28;20075;-67
2022/02/10 00:15:59;;;;;;;43.13;25.57;;;;;;;;;;5033377;28;20036;-67
2022/02/10 00:18:01;;;;;;;46.77;27.77;;;;;;;;;;5019118;28;20026;-67
2022/02/10 00:20:38;;;;;;;59.20;25.90;;;;;;;;;;5033225;28;20075;-67
2022/02/10 00:23:17;;;;;;;47.97;25.13;;;;;;;;;;5033549;28;20028;-67
2022/02/10 00:36:45;;;;;;;50.97;27.97;;;;;;;;;;5033364;28;20437;-67
2022/02/10 00:41:57;;;;;;;44.97;26.13;;;;;;;;;;5033186;28;20040;-67
2022/02/10 00:44:23;;;;;;;44.70;25.20;;;;;;;;;;5032102;28;20104;-73
2022/02/10 00:46:49;;;;;;;32.53;22.83;;;;;;;;;;5032649;28;20045;-67
2022/02/10 00:49:15;;;;;;;36.90;23.00;;;;;;;;;;5031422;28;20079;-68
2022/02/10 00:51:41;;;;;;;37.90;23.47;;;;;;;;;;5032590;28;20013;-67
2022/02/10 00:54:09;;;;;;;35.50;23.10;;;;;;;;;;5032769;28;20482;-67
2022/02/10 00:56:35;;;;;;;37.50;24.17;;;;;;;;;;5032143;28;20021;-68
2022/02/10 00:59:22;;;;;;;43.50;25.43;;;;;;;;;;5032127;28;20025;-67
2022/02/10 01:10:43;;;;;;;32.87;22.33;;;;;;;;;;4951536;28;20524;-67
2022/02/10 01:29:37;;;;;;;38.13;22.83;;;;;;;;;;5031597;28;20029;-68
2022/02/10 01:32:04;;;;;;;40.80;22.00;;;;;;;;;;5031703;28;20313;-67
2022/02/10 01:34:32;;;;;;;33.97;21.97;;;;;;;;;;5031905;28;20025;-67
2022/02/10 01:36:58;;;;;;;33.83;21.67;;;;;;;;;;5032078;28;20029;-67
2022/02/10 01:39:30;;;;;;;40.43;25.73;;;;;;;;;;5031546;28;20097;-67
2022/02/10 02:03:45;;;;;;;55.30;29.50;;;;;;;;;;5029201;28;20036;-67
2022/02/10 02:06:20;;;;;;;46.43;27.63;;;;;;;;;;5031228;28;20053;-67
2022/02/10 02:08:46;;;;;;;41.93;25.13;;;;;;;;;;5030698;28;20096;-67
2022/02/10 02:11:13;;;;;;;38.90;26.13;;;;;;;;;;5031602;28;20471;-65
2022/02/10 02:13:39;;;;;;;41.67;25.33;;;;;;;;;;5031166;28;20022;-67
2022/02/10 02:16:05;;;;;;;41.43;25.33;;;;;;;;;;5030915;28;20033;-67
2022/02/10 02:18:31;;;;;;;42.00;25.87;;;;;;;;;;5031226;28;20101;-67
2022/02/10 02:20:57;;;;;;;36.00;24.37;;;;;;;;;;5030541;28;20034;-67
2022/02/10 02:23:24;;;;;;;38.10;24.73;;;;;;;;;;5031123;28;20493;-67
2022/02/10 02:25:59;;;;;;;40.63;25.40;;;;;;;;;;5031349;28;20064;-67
2022/02/10 02:28:26;;;;;;;48.10;27.80;;;;;;;;;;5031006;28;20025;-66
2022/02/10 02:30:58;;;;;;;42.27;25.70;;;;;;;;;;5030896;28;20056;-66
2022/02/10 03:05:42;;;;;;;55.30;23.77;;;;;;;;;;5030557;28;20032;-66
2022/02/10 03:08:17;;;;;;;44.47;24.27;;;;;;;;;;5031961;28;20021;-67
2022/02/10 03:13:18;;;;;;;44.37;25.47;;;;;;;;;;5034360;28;20481;-67
2022/02/10 04:15:12;;;;;;;40.20;24.20;;;;;;;;;;5033082;28;20025;-68
2022/02/10 04:17:58;;;;;;;37.37;23.87;;;;;;;;;;5028902;28;20044;-71
2022/02/10 04:26:42;;;;;;;44.40;25.07;;;;;;;;;;5033109;28;20022;-67
2022/02/10 04:31:28;;;;;;;44.53;24.93;;;;;;;;;;5033352;28;20026;-66
2022/02/10 05:33:19;;;;;;;38.77;22.60;;;;;;;;;;5032054;28;20508;-66
2022/02/10 05:35:56;;;;;;;45.33;23.10;;;;;;;;;;5031889;28;20429;-70
2022/02/10 05:38:33;;;;;;;37.07;22.50;;;;;;;;;;5031972;28;20036;-66
2022/02/10 05:43:41;;;;;;;36.67;22.53;;;;;;;;;;5032258;28;20029;-66
2022/02/10 06:02:11;;;;;;;40.67;22.80;;;;;;;;;;5031901;28;20044;-67
2022/02/10 06:51:06;;;;;;;46.43;26.10;;;;;;;;;;5004339;28;20029;-71
2022/02/10 06:53:48;;;;;;;43.47;25.43;;;;;;;;;;5034885;28;20072;-67
2022/02/10 07:58:12;;;;;;;49.90;26.00;;;;;;;;;;5035244;28;20033;-68
2022/02/10 08:49:57;;;;;;;47.93;25.23;;;;;;;;;;4955978;28;20041;-66
2022/02/10 09:09:08;;;;;;;33.50;20.97;;;;;;;;;;4951002;29;20039;-66
2022/02/10 09:19:43;;;;;;;29.03;20.97;;;;;;;;;;4955813;28;20027;-67
2022/02/10 10:00:13;;;;;;;33.00;21.47;;;;;;;;;;4936586;29;20050;-67
2022/02/10 10:02:57;;;;;;;39.13;21.77;;;;;;;;;;4955003;29;20078;-65
2022/02/10 10:05:34;;;;;;;;;;;;;;;;;;4955441;28;20110;-65
2022/02/10 10:08:34;;;;;;;43.47;21.60;;;;;;;;;;4955176;28;20263;-64
2022/02/10 10:14:08;;;;;;;33.47;22.00;;;;;;;;;;4955277;28;20042;-71
2022/02/10 10:16:52;;;;;;;38.93;21.97;;;;;;;;;;4956091;28;20186;-65
2022/02/10 10:19:43;;;;;;;34.93;21.37;;;;;;;;;;4961240;28;20023;-65
2022/02/10 10:22:30;;;;;;;41.50;22.73;;;;;;;;;;4961227;28;20019;-65
2022/02/10 10:25:34;;;;;;;36.43;22.13;;;;;;;;;;4961237;28;20178;-63
2022/02/10 10:50:35;;;;;;;65.57;32.00;;;;;;;;;;4960665;28;20418;-66
2022/02/10 10:55:46;;;;;;;60.73;34.67;;;;;;;;;;4960528;28;20499;-64
2022/02/10 10:58:17;;;;;;;64.97;35.47;;;;;;;;;;4960822;28;20423;-65
2022/02/10 11:36:51;;;;;;;60.20;32.57;;;;;;;;;;4957472;28;20137;-64
2022/02/10 12:42:14;;;;;;;57.37;29.90;;;;;;;;;;4955586;28;20079;-64
2022/02/10 13:31:20;;;;;;;53.73;32.60;;;;;;;;;;4955210;28;20044;-65
2022/02/10 13:48:16;;;;;;;61.17;32.37;;;;;;;;;;4955441;28;20051;-66
2022/02/10 14:14:41;;;;;;;53.60;33.60;;;;;;;;;;4954663;28;20074;-65
2022/02/10 14:17:10;;;;;;;52.23;31.00;;;;;;;;;;4954885;28;20144;-65
2022/02/10 14:27:23;;;;;;;61.80;30.50;;;;;;;;;;4955042;28;20086;-66
2022/02/10 14:29:49;;;;;;;51.23;30.23;;;;;;;;;;4954771;28;20464;-65
2022/02/10 14:32:18;;;;;;;50.53;29.47;;;;;;;;;;4954222;28;20027;-71
2022/02/10 14:34:47;;;;;;;52.23;30.37;;;;;;;;;;4954399;28;20035;-65
2022/02/10 14:39:57;;;;;;;100.73;39.87;;;;;;;;;;4954119;29;20495;-64
2022/02/10 14:42:55;;;;;;;69.13;30.67;;;;;;;;;;4954536;28;20031;-66
2022/02/10 15:51:47;;;;;;;66.10;40.87;;;;;;;;;;4957323;29;20054;-67
2022/02/10 16:14:25;;;;;;;52.80;31.53;;;;;;;;;;4957102;29;20038;-67
2022/02/10 16:18:19;;;;;;;48.70;30.13;;;;;;;;;;4956997;28;20098;-67
2022/02/10 16:20:57;;;;;;;47.87;29.00;;;;;;;;;;4956590;28;20431;-66
2022/02/10 16:23:25;;;;;;;47.07;30.03;;;;;;;;;;4956703;28;20047;-65
2022/02/10 16:26:08;;;;;;;57.60;34.23;;;;;;;;;;4956763;29;20023;-66
2022/02/10 16:28:40;;;;;;;52.60;31.63;;;;;;;;;;4956711;29;20175;-65
2022/02/10 16:31:06;;;;;;;47.80;30.73;;;;;;;;;;4956573;29;20021;-65
2022/02/10 16:33:33;;;;;;;55.37;32.73;;;;;;;;;;4956149;28;20023;-65
2022/02/10 16:36:00;;;;;;;43.47;28.97;;;;;;;;;;4955945;29;20031;-65
2022/02/10 16:38:29;;;;;;;49.33;30.37;;;;;;;;;;4956235;28;20544;-65
2022/02/10 16:40:55;;;;;;;44.07;28.87;;;;;;;;;;4955964;28;20725;-67
2022/02/10 16:43:22;;;;;;;46.73;29.17;;;;;;;;;;4955978;29;20019;-66
2022/02/10 16:45:48;;;;;;;46.33;29.70;;;;;;;;;;4954765;28;20031;-65
2022/02/10 16:48:14;;;;;;;61.13;32.07;;;;;;;;;;4955949;29;20031;-64
2022/02/10 16:50:43;;;;;;;52.57;32.07;;;;;;;;;;4955223;29;20055;-66
2022/02/10 16:53:12;;;;;;;46.80;30.77;;;;;;;;;;4969901;28;20435;-66
2022/02/10 16:55:56;;;;;;;45.23;31.33;;;;;;;;;;4955249;28;20043;-65
2022/02/10 16:58:44;;;;;;;58.17;32.13;;;;;;;;;;4953236;29;20372;-64
2022/02/10 17:01:35;;;;;;;51.23;30.53;;;;;;;;;;4954183;28;20082;-65
2022/02/10 17:20:40;;;;;;;56.17;35.23;;;;;;;;;;4946240;28;20038;-65
2022/02/10 17:26:10;;;;;;;57.70;32.43;;;;;;;;;;4945066;28;20082;-65
2022/02/10 17:28:38;;;;;;;50.23;31.13;;;;;;;;;;4950639;28;20050;-65
2022/02/10 17:36:38;;;;;;;49.57;29.37;;;;;;;;;;4953425;28;20043;-65
2022/02/10 17:52:26;;;;;;;41.20;24.07;;;;;;;;;;4954267;28;20093;-65
2022/02/10 17:54:53;;;;;;;40.23;24.53;;;;;;;;;;4952476;28;20475;-64
2022/02/10 17:57:19;;;;;;;38.37;24.27;;;;;;;;;;4951215;29;20440;-64
2022/02/10 17:59:45;;;;;;;38.43;24.17;;;;;;;;;;4944466;28;20058;-65
2022/02/10 18:02:12;;;;;;;44.90;24.07;;;;;;;;;;4931850;29;20058;-68
2022/02/10 18:04:38;;;;;;;37.10;24.10;;;;;;;;;;4933725;29;20043;-71
2022/02/10 18:07:05;;;;;;;43.93;25.20;;;;;;;;;;4940601;28;20483;-66
2022/02/10 18:12:28;;;;;;;42.97;26.52;;;;;;;;;;4973627;28;20035;-65
2022/02/10 18:19:58;;;;;;;41.23;26.80;;;;;;;;;;4954701;28;20488;-65
2022/02/10 18:22:40;;;;;;;46.80;27.38;;;;;;;;;;4954188;28;20046;-70
2022/02/10 18:27:45;;;;;;;46.28;27.67;;;;;;;;;;4954574;28;20410;-70
2022/02/10 18:30:17;;;;;;;45.30;28.37;;;;;;;;;;4952249;28;20047;-65
2022/02/10 19:01:31;;;;;;;75.50;44.80;;;;;;;;;;4957617;29;20490;-66
2022/02/10 19:08:26;;;;;;;50.00;29.43;;;;;;;;;;4958050;28;20102;-65
2022/02/10 19:10:58;;;;;;;49.30;27.60;;;;;;;;;;4957864;28;20039;-67
2022/02/10 19:13:24;;;;;;;52.97;28.80;;;;;;;;;;4958258;28;20376;-66
2022/02/10 19:15:54;;;;;;;53.10;29.37;;;;;;;;;;4958148;28;20062;-66
2022/02/10 19:18:20;;;;;;;50.83;27.23;;;;;;;;;;4957992;28;20038;-65
2022/02/10 19:20:47;;;;;;;49.90;28.17;;;;;;;;;;4957804;28;20539;-65
2022/02/10 19:23:13;;;;;;;56.13;30.57;;;;;;;;;;4957881;28;20082;-66
2022/02/10 19:25:39;;;;;;;56.03;30.17;;;;;;;;;;4957955;28;20046;-66
2022/02/10 19:28:06;;;;;;;60.67;28.57;;;;;;;;;;4958004;28;20376;-65
2022/02/10 19:30:35;;;;;;;50.37;27.77;;;;;;;;;;4957883;28;20062;-65
2022/02/10 19:33:03;;;;;;;52.77;27.90;;;;;;;;;;4957612;28;20062;-66
2022/02/10 19:35:31;;;;;;;43.40;27.40;;;;;;;;;;4955422;28;20168;-70
2022/02/10 19:38:01;;;;;;;47.93;28.40;;;;;;;;;;4954886;28;20179;-65
2022/02/10 19:40:30;;;;;;;56.03;31.83;;;;;;;;;;4954778;28;20167;-65
2022/02/10 19:42:57;;;;;;;47.90;28.90;;;;;;;;;;4957114;28;20038;-66
2022/02/10 19:45:24;;;;;;;54.90;28.37;;;;;;;;;;4948287;28;20019;-66
2022/02/10 19:47:51;;;;;;;55.47;30.53;;;;;;;;;;4945400;28;20062;-65
2022/02/10 19:50:24;;;;;;;55.87;31.93;;;;;;;;;;4947228;28;20031;-67
2022/02/10 19:52:52;;;;;;;57.03;30.90;;;;;;;;;;4946768;28;20034;-66
2022/02/10 19:55:21;;;;;;;49.17;30.70;;;;;;;;;;4952897;29;20047;-65
2022/02/10 19:57:48;;;;;;;52.17;31.37;;;;;;;;;;4949226;28;20066;-65
2022/02/10 20:00:19;;;;;;;51.40;30.83;;;;;;;;;;4951741;28;20103;-66
2022/02/10 20:02:45;;;;;;;53.87;31.60;;;;;;;;;;4946934;28;20035;-66
2022/02/10 20:05:11;;;;;;;50.37;31.03;;;;;;;;;;4945999;28;20428;-65
2022/02/10 20:07:38;;;;;;;59.83;32.40;;;;;;;;;;4947885;28;20475;-65
2022/02/10 20:10:08;;;;;;;49.73;29.87;;;;;;;;;;4945642;29;20031;-66
2022/02/10 20:12:35;;;;;;;54.73;31.10;;;;;;;;;;4946985;28;20439;-66
2022/02/10 20:15:01;;;;;;;46.83;30.90;;;;;;;;;;4951077;28;20190;-65
2022/02/10 20:17:27;;;;;;;49.70;30.37;;;;;;;;;;4956487;28;20038;-66
2022/02/10 20:19:53;;;;;;;47.40;31.10;;;;;;;;;;4956578;28;20082;-67
2022/02/10 20:22:19;;;;;;;46.87;29.97;;;;;;;;;;4953842;28;20090;-73
2022/02/10 20:24:46;;;;;;;62.47;33.67;;;;;;;;;;4942595;29;20532;-64
2022/02/10 20:27:12;;;;;;;56.97;35.23;;;;;;;;;;4937532;29;20104;-68
2022/02/10 20:29:38;;;;;;;65.07;36.13;;;;;;;;;;4937386;29;20027;-66
2022/02/10 20:32:05;;;;;;;58.07;35.10;;;;;;;;;;4937714;29;20469;-65
2022/02/10 20:34:32;;;;;;;64.33;34.03;;;;;;;;;;4937213;29;20052;-65
2022/02/10 20:37:00;;;;;;;52.43;30.43;;;;;;;;;;4937268;29;20032;-65
2022/02/10 20:39:29;;;;;;;57.10;32.63;;;;;;;;;;4937037;29;20024;-67
2022/02/10 20:42:03;;;;;;;59.27;30.40;;;;;;;;;;4936818;29;20031;-64
2022/02/10 20:44:29;;;;;;;49.90;29.10;;;;;;;;;;4937236;29;20032;-66
2022/02/10 20:46:56;;;;;;;45.50;30.27;;;;;;;;;;4937107;29;20047;-66
2022/02/10 20:49:27;;;;;;;48.43;30.53;;;;;;;;;;4937119;29;20047;-67
2022/02/10 20:51:53;;;;;;;44.30;27.87;;;;;;;;;;4937054;29;20023;-67
2022/02/10 20:54:20;;;;;;;48.10;26.50;;;;;;;;;;4936860;29;20026;-65
2022/02/10 20:56:46;;;;;;;42.73;25.60;;;;;;;;;;4936517;29;20043;-68
2022/02/10 21:01:46;;;;;;;44.58;25.63;;;;;;;;;;4936116;29;20515;-68
2022/02/10 21:04:12;;;;;;;41.03;26.63;;;;;;;;;;4936769;29;20031;-67
2022/02/10 21:09:22;;;;;;;47.53;26.83;;;;;;;;;;4936712;29;20062;-66
2022/02/10 21:11:52;;;;;;;46.10;28.17;;;;;;;;;;4936836;29;20034;-65
2022/02/10 21:14:20;;;;;;;50.10;27.50;;;;;;;;;;4936580;29;20031;-72
2022/02/10 21:16:46;;;;;;;50.33;28.17;;;;;;;;;;4936596;29;20067;-67
2022/02/10 21:19:13;;;;;;;54.97;29.20;;;;;;;;;;4936476;29;20023;-66
2022/02/10 21:21:41;;;;;;;47.60;27.37;;;;;;;;;;4951034;29;20063;-65
2022/02/10 21:24:12;;;;;;;54.10;25.70;;;;;;;;;;4936313;29;20099;-67
2022/02/10 21:26:56;;;;;;;45.30;27.00;;;;;;;;;;4936376;29;20031;-69
2022/02/10 21:29:22;;;;;;;43.57;26.43;;;;;;;;;;4936532;29;20148;-67
2022/02/10 21:31:50;;;;;;;43.40;26.03;;;;;;;;;;4936752;29;20520;-68
2022/02/10 21:34:23;;;;;;;46.43;27.60;;;;;;;;;;4936400;29;20031;-74
2022/02/10 21:39:43;;;;;;;35.92;23.92;;;;;;;;;;4936622;29;20038;-68
2022/02/10 21:44:25;;;;;;;44.93;27.27;;;;;;;;;;4936092;29;20038;-73
2022/02/10 22:02:03;;;;;;;48.50;26.63;;;;;;;;;;4936078;29;20047;-65
2022/02/10 22:06:20;;;;;;;49.37;30.20;;;;;;;;;;4935733;29;20560;-71
2022/02/10 22:19:55;;;;;;;54.50;30.83;;;;;;;;;;4935862;29;20039;-68
2022/02/10 22:22:31;;;;;;;74.17;33.07;;;;;;;;;;4935708;29;20032;-69
2022/02/10 22:24:58;;;;;;;55.73;31.07;;;;;;;;;;4935743;29;20019;-68
2022/02/10 22:27:28;;;;;;;59.33;30.17;;;;;;;;;;4935903;29;20031;-69
2022/02/10 22:29:58;;;;;;;51.43;29.77;;;;;;;;;;4935455;29;20388;-69
2022/02/10 22:32:53;;;;;;;46.47;30.43;;;;;;;;;;4935446;29;20039;-68
2022/02/10 22:35:12;;;;;;;49.83;29.63;;;;;;;;;;4935305;29;20134;-68
2022/02/10 22:37:40;;;;;;;53.90;29.90;;;;;;;;;;4935528;29;20028;-67
2022/02/10 22:40:21;;;;;;;48.67;30.07;;;;;;;;;;4935553;29;20052;-68
2022/02/10 22:42:47;;;;;;;47.07;28.87;;;;;;;;;;4950093;28;20040;-67
2022/02/10 22:45:14;;;;;;;52.23;29.87;;;;;;;;;;4945286;28;20027;-68
2022/02/10 22:47:40;;;;;;;47.37;29.37;;;;;;;;;;4952387;29;20086;-68
2022/02/10 22:50:07;;;;;;;46.90;28.63;;;;;;;;;;4954031;28;20468;-72
2022/02/10 22:52:33;;;;;;;50.07;27.93;;;;;;;;;;4954164;28;20028;-68
2022/02/10 22:54:59;;;;;;;54.83;30.23;;;;;;;;;;4954153;28;20039;-68
2022/02/10 22:57:25;;;;;;;50.50;30.13;;;;;;;;;;4954650;28;20074;-68
2022/02/10 22:59:51;;;;;;;45.50;29.77;;;;;;;;;;4953737;28;20102;-68
2022/02/10 23:02:17;;;;;;;53.07;29.53;;;;;;;;;;4953893;28;20019;-68
2022/02/10 23:04:43;;;;;;;56.90;29.70;;;;;;;;;;4953988;28;20428;-69
2022/02/10 23:07:10;;;;;;;57.43;31.00;;;;;;;;;;4953750;28;20054;-68
2022/02/10 23:09:49;;;;;;;53.57;30.87;;;;;;;;;;4954015;29;20478;-68
2022/02/10 23:12:15;;;;;;;59.30;32.00;;;;;;;;;;4953763;28;20391;-68
2022/02/10 23:14:41;;;;;;;55.97;31.73;;;;;;;;;;4952754;28;20110;-69
2022/02/10 23:17:07;;;;;;;55.23;30.17;;;;;;;;;;4953436;28;20432;-68
2022/02/10 23:19:34;;;;;;;48.03;28.77;;;;;;;;;;4953986;28;20043;-68
2022/02/10 23:22:00;;;;;;;54.27;31.53;;;;;;;;;;4953803;28;20031;-69
2022/02/10 23:24:26;;;;;;;52.77;31.50;;;;;;;;;;4953873;28;20178;-68
2022/02/10 23:26:53;;;;;;;52.93;31.03;;;;;;;;;;4957217;28;20027;-69
2022/02/10 23:29:19;;;;;;;52.77;32.23;;;;;;;;;;4956753;28;20027;-71
2022/02/10 23:31:45;;;;;;;54.27;32.17;;;;;;;;;;4957431;28;20027;-70
2022/02/10 23:34:11;;;;;;;53.30;32.13;;;;;;;;;;4957612;28;20027;-69
2022/02/10 23:36:44;;;;;;;61.90;34.17;;;;;;;;;;4957409;28;20120;-67
2022/02/10 23:39:17;;;;;;;58.53;37.70;;;;;;;;;;4957315;28;20085;-68
2022/02/10 23:42:29;;;;;;;54.33;36.33;;;;;;;;;;4957400;28;20063;-67
2022/02/10 23:44:43;;;;;;;59.10;35.90;;;;;;;;;;4961505;28;20038;-68
2022/02/10 23:47:17;;;;;;;64.13;38.40;;;;;;;;;;4987633;28;20106;-67
2022/02/10 23:49:43;;;;;;;56.53;35.60;;;;;;;;;;4956496;28;20024;-71
2022/02/10 23:52:11;;;;;;;63.30;37.60;;;;;;;;;;4957230;28;20050;-68
2022/02/10 23:54:38;;;;;;;54.10;34.70;;;;;;;;;;4957549;28;20024;-68
2022/02/10 23:57:17;;;;;;;53.17;34.60;;;;;;;;;;4956825;29;20037;-67
